Jacquet River, Canada
Current Conditions -  °F | °C
As of 10:00 AM on Thursday 23 Oct 2014 (Local Time) from CZBF Reporting Station
Drizzle Drizzle  
Wind Chill:   Ceiling: 1000
Heat Index:   Visibility: 5mi
Dew Point:   Wind: 14mph
Humidity: 87%   Direction: 50°NE
Pressure: 30.29"   Gusts: 21mph
Location:  47.92°N, 66°W
Report Text: CZBF 231300Z 05012G18KT 020V080 5SM -DZ BR OVC010 06/04 A3029 RMK ST8 SLP260
Loading
Personal Weather Stations






























Interactive Weather Map
Tropical Storm Tracking
New forecast layout! Learn more

10-Day Weather Forecast

Advertisements
Track Severe Weather on mobile